Skaelskor, Denmark
Current Conditions -  °F | °C
As of 4:20 AM on Tuesday 23 Dec 2014 (Local Time) from EKRK Reporting Station
Broken Clouds Broken Clouds  
Wind Chill:   Ceiling: 20000
Heat Index:   Visibility: 6mi
Dew Point:   Wind: 14mph
Humidity: 87%   Direction: 260°W
Pressure: 29.56"   Gusts: NA
Location:  55.25°N, 11.29°E
Report Text: EKRK 230320Z AUTO 26012KT 9999NDV FEW015/// BKN200///07/05 Q1001
Loading
Personal Weather Stations






























Interactive Weather Map New forecast layout! Learn more

10-Day Weather Forecast

Advertisements
Track Severe Weather on mobile